New Prague, MN (56071)

12:45 PM CDT on April 30, 2017 (GMT -0500)
Second Street SW | | Change Station

Elev 997 ft 44.54 °N, 93.58 °W | Updated 35 seconds ago

Rain
Rain
42.4 °F
Feels Like 38 °F
N
7.8
Wind Variable Wind from SW

Today
High -- | Low -- °F
--% Chance of Precip.
Yesterday
High -- | Low -- °F
Precip. -- in
Pressure 29.95 in
Visibility 10.0 miles
Clouds Scattered Clouds 3000 ft
Scattered Clouds 4900 ft
Mostly Cloudy 6000 ft
Windchill 38 °F
Dew Point 38 °F
Humidity 83%
Rainfall 0.09 in
Snow Depth Not available.
6:05 AM 8:18 PM
Waxing Crescent, 24% visible
METAR KLVN 301730Z AUTO 03013KT 10SM -DZ SCT030 SCT049 BKN060 05/02 A2995 RMK AO2
Pressure 29.95 in
Visibility 10.0 miles
Clouds Scattered Clouds 3000 ft
Scattered Clouds 4900 ft
Mostly Cloudy 6000 ft
Windchill 38 °F
Dew Point 38 °F
Humidity 83%
Rainfall 0.09 in
Snow Depth Not available.
6:05 AM 8:18 PM
Waxing Crescent, 24% visible
METAR KLVN 301730Z AUTO 03013KT 10SM -DZ SCT030 SCT049 BKN060 05/02 A2995 RMK AO2

Get Severe Weather Alerts

Thanks for signing up!

Be on the lookout for a verification email in your inbox.

You'll start receiving the daily forecast at 8 AM.

×

10-Day Weather Forecast

Almanac

Astronomy

Apr. 30, 2017 Rise Set
Actual Time
Civil Twilight
Nautical Twilight
Astronomical Twilight
Moon
Length of Visible Light
Length of Day
Tomorrow will be .
, % of the Moon is Illuminated

Today's Extremes

State Highs State Lows

Community

WunderPhotos

WunderBlog® & News

Nearby

Air Quality

  Air Quality AQ Index Pollutant
Not available.

Snow Depth

Station Depth Elevation

Earthquake Activity

City Distance Mag. Time & Date
Minimum magnitude displayed is 2.5.

Coastal Water Temperatures

Place Temperature

Stations

Nearby Weather Stations

Station Location Temp. Windchill Dew Point Humidity Wind Precip. Elev Updated Type
                   

Watches & Warnings

There are currently no watches in effect.